sensor_id;sensor_type;location;lat;lon;timestamp;temperature;humidity
21312;DHT22;18076;52.154;10.570;2024-01-15T00:01:45;1.60;99.90
21312;DHT22;18076;52.154;10.570;2024-01-15T00:04:10;1.70;99.90
21312;DHT22;18076;52.154;10.570;2024-01-15T00:06:36;1.70;99.90
21312;DHT22;18076;52.154;10.570;2024-01-15T00:09:02;1.70;99.90
21312;DHT22;18076;52.154;10.570;2024-01-15T00:11:27;1.70;99.90
21312;DHT22;18076;52.154;10.570;2024-01-15T00:13:53;1.70;99.90
21312;DHT22;18076;52.154;10.570;2024-01-15T00:16:18;1.80;99.90
21312;DHT22;18076;52.154;10.570;2024-01-15T00:18:44;1.80;99.90
21312;DHT22;18076;52.154;10.570;2024-01-15T00:21:09;1.80;99.90
21312;DHT22;18076;52.154;10.570;2024-01-15T00:23:35;1.80;99.90
21312;DHT22;18076;52.154;10.570;2024-01-15T00:26:01;1.90;99.90
21312;DHT22;18076;52.154;10.570;2024-01-15T00:28:26;1.90;99.90
21312;DHT22;18076;52.154;10.570;2024-01-15T00:30:52;1.90;99.90
21312;DHT22;18076;52.154;10.570;2024-01-15T00:33:17;1.90;99.90
21312;DHT22;18076;52.154;10.570;2024-01-15T00:35:43;1.80;99.90
21312;DHT22;18076;52.154;10.570;2024-01-15T00:38:09;1.80;99.90
21312;DHT22;18076;52.154;10.570;2024-01-15T00:40:34;1.70;99.90
21312;DHT22;18076;52.154;10.570;2024-01-15T00:43:00;1.70;99.90
21312;DHT22;18076;52.154;10.570;2024-01-15T00:45:25;1.70;99.90
21312;DHT22;18076;52.154;10.570;2024-01-15T00:47:50;1.60;99.90
21312;DHT22;18076;52.154;10.570;2024-01-15T00:50:16;1.60;99.90
21312;DHT22;18076;52.154;10.570;2024-01-15T00:52:42;1.60;99.90
21312;DHT22;18076;52.154;10.570;2024-01-15T00:55:08;1.60;99.90
21312;DHT22;18076;52.154;10.570;2024-01-15T00:57:33;1.70;99.90
21312;DHT22;18076;52.154;10.570;2024-01-15T00:59:59;1.70;99.90
21312;DHT22;18076;52.154;10.570;2024-01-15T01:02:26;1.70;99.90
21312;DHT22;18076;52.154;10.570;2024-01-15T01:04:51;1.70;99.90
21312;DHT22;18076;52.154;10.570;2024-01-15T01:07:17;1.70;99.90
21312;DHT22;18076;52.154;10.570;2024-01-15T01:09:42;1.70;99.90
21312;DHT22;18076;52.154;10.570;2024-01-15T01:12:09;1.70;99.90
21312;DHT22;18076;52.154;10.570;2024-01-15T01:14:34;1.60;99.90
21312;DHT22;18076;52.154;10.570;2024-01-15T01:17:00;1.70;99.90
21312;DHT22;18076;52.154;10.570;2024-01-15T01:19:25;1.60;99.90
21312;DHT22;18076;52.154;10.570;2024-01-15T01:21:51;1.60;99.90
21312;DHT22;18076;52.154;10.570;2024-01-15T01:24:16;1.70;99.90
21312;DHT22;18076;52.154;10.570;2024-01-15T01:26:42;1.70;99.90
21312;DHT22;18076;52.154;10.570;2024-01-15T01:29:08;1.70;99.90
21312;DHT22;18076;52.154;10.570;2024-01-15T01:31:33;1.70;99.90
21312;DHT22;18076;52.154;10.570;2024-01-15T01:33:59;1.70;99.90
21312;DHT22;18076;52.154;10.570;2024-01-15T01:36:24;1.70;99.90
21312;DHT22;18076;52.154;10.570;2024-01-15T01:38:50;1.60;99.90
21312;DHT22;18076;52.154;10.570;2024-01-15T01:41:15;1.70;99.90
21312;DHT22;18076;52.154;10.570;2024-01-15T01:43:41;1.70;99.90
21312;DHT22;18076;52.154;10.570;2024-01-15T01:46:06;1.70;99.90
21312;DHT22;18076;52.154;10.570;2024-01-15T01:48:32;1.70;99.90
21312;DHT22;18076;52.154;10.570;2024-01-15T01:50:59;1.70;99.90
21312;DHT22;18076;52.154;10.570;2024-01-15T01:53:26;1.70;99.90
21312;DHT22;18076;52.154;10.570;2024-01-15T01:55:52;1.60;99.90
21312;DHT22;18076;52.154;10.570;2024-01-15T01:58:18;1.60;99.90
21312;DHT22;18076;52.154;10.570;2024-01-15T02:00:44;1.60;99.90
21312;DHT22;18076;52.154;10.570;2024-01-15T02:03:10;1.60;99.90
21312;DHT22;18076;52.154;10.570;2024-01-15T02:05:36;1.50;99.90
21312;DHT22;18076;52.154;10.570;2024-01-15T02:08:02;1.50;99.90
21312;DHT22;18076;52.154;10.570;2024-01-15T02:10:28;1.50;99.90
21312;DHT22;18076;52.154;10.570;2024-01-15T02:12:53;1.50;99.90
21312;DHT22;18076;52.154;10.570;2024-01-15T02:15:19;1.50;99.90
21312;DHT22;18076;52.154;10.570;2024-01-15T02:20:22;1.60;99.90
21312;DHT22;18076;52.154;10.570;2024-01-15T02:22:47;1.60;99.90
21312;DHT22;18076;52.154;10.570;2024-01-15T02:25:13;1.60;99.90
21312;DHT22;18076;52.154;10.570;2024-01-15T02:27:38;1.70;99.90
21312;DHT22;18076;52.154;10.570;2024-01-15T02:30:04;1.70;99.90
21312;DHT22;18076;52.154;10.570;2024-01-15T02:32:31;1.70;99.90
21312;DHT22;18076;52.154;10.570;2024-01-15T02:34:57;1.70;99.90
21312;DHT22;18076;52.154;10.570;2024-01-15T02:37:22;1.70;99.90
21312;DHT22;18076;52.154;10.570;2024-01-15T02:39:47;1.80;99.90
21312;DHT22;18076;52.154;10.570;2024-01-15T02:42:13;1.80;99.90
21312;DHT22;18076;52.154;10.570;2024-01-15T02:44:38;1.80;99.90
21312;DHT22;18076;52.154;10.570;2024-01-15T02:47:04;1.80;99.90
21312;DHT22;18076;52.154;10.570;2024-01-15T02:49:30;1.80;99.90
21312;DHT22;18076;52.154;10.570;2024-01-15T02:51:57;1.90;99.90
21312;DHT22;18076;52.154;10.570;2024-01-15T02:54:23;1.80;99.90
21312;DHT22;18076;52.154;10.570;2024-01-15T02:56:48;1.90;99.90
21312;DHT22;18076;52.154;10.570;2024-01-15T02:59:14;2.00;99.90
21312;DHT22;18076;52.154;10.570;2024-01-15T03:01:39;1.90;99.90
21312;DHT22;18076;52.154;10.570;2024-01-15T03:04:05;1.90;99.90
21312;DHT22;18076;52.154;10.570;2024-01-15T03:06:30;2.00;99.90
21312;DHT22;18076;52.154;10.570;2024-01-15T03:08:56;2.00;99.90
21312;DHT22;18076;52.154;10.570;2024-01-15T03:11:21;2.00;99.90
21312;DHT22;18076;52.154;10.570;2024-01-15T03:13:47;2.00;99.90
21312;DHT22;18076;52.154;10.570;2024-01-15T03:16:12;2.00;99.90
21312;DHT22;18076;52.154;10.570;2024-01-15T03:18:38;2.00;99.90
21312;DHT22;18076;52.154;10.570;2024-01-15T03:21:04;2.00;99.90
21312;DHT22;18076;52.154;10.570;2024-01-15T03:23:30;2.00;99.90
21312;DHT22;18076;52.154;10.570;2024-01-15T03:25:55;2.00;99.90
21312;DHT22;18076;52.154;10.570;2024-01-15T03:28:21;2.00;99.90
21312;DHT22;18076;52.154;10.570;2024-01-15T03:30:46;2.10;99.90
21312;DHT22;18076;52.154;10.570;2024-01-15T03:33:12;2.10;99.90
21312;DHT22;18076;52.154;10.570;2024-01-15T03:35:37;2.10;99.90
21312;DHT22;18076;52.154;10.570;2024-01-15T03:38:03;2.10;99.90
21312;DHT22;18076;52.154;10.570;2024-01-15T03:40:28;2.10;99.90
21312;DHT22;18076;52.154;10.570;2024-01-15T03:42:54;2.10;99.90
21312;DHT22;18076;52.154;10.570;2024-01-15T03:45:19;2.10;99.90
21312;DHT22;18076;52.154;10.570;2024-01-15T03:47:45;2.10;99.90
21312;DHT22;18076;52.154;10.570;2024-01-15T03:50:10;2.20;99.90
21312;DHT22;18076;52.154;10.570;2024-01-15T03:52:36;2.20;99.90
21312;DHT22;18076;52.154;10.570;2024-01-15T03:55:01;2.20;99.90
21312;DHT22;18076;52.154;10.570;2024-01-15T03:57:27;2.20;99.90
21312;DHT22;18076;52.154;10.570;2024-01-15T03:59:52;2.20;99.90
21312;DHT22;18076;52.154;10.570;2024-01-15T04:02:18;2.20;99.90
21312;DHT22;18076;52.154;10.570;2024-01-15T04:04:43;2.20;99.90
21312;DHT22;18076;52.154;10.570;2024-01-15T04:07:09;2.20;99.90
21312;DHT22;18076;52.154;10.570;2024-01-15T04:09:35;2.20;99.90
21312;DHT22;18076;52.154;10.570;2024-01-15T04:12:01;2.20;99.90
21312;DHT22;18076;52.154;10.570;2024-01-15T04:14:26;2.20;99.90
21312;DHT22;18076;52.154;10.570;2024-01-15T04:16:52;2.20;99.90
21312;DHT22;18076;52.154;10.570;2024-01-15T04:19:17;2.20;99.90
21312;DHT22;18076;52.154;10.570;2024-01-15T04:21:43;2.20;99.90
21312;DHT22;18076;52.154;10.570;2024-01-15T04:24:08;2.20;99.90
21312;DHT22;18076;52.154;10.570;2024-01-15T04:26:34;2.20;99.90
21312;DHT22;18076;52.154;10.570;2024-01-15T04:28:59;2.10;99.90
21312;DHT22;18076;52.154;10.570;2024-01-15T04:31:25;2.00;99.90
21312;DHT22;18076;52.154;10.570;2024-01-15T04:33:52;2.10;99.90
21312;DHT22;18076;52.154;10.570;2024-01-15T04:36:17;2.10;99.90
21312;DHT22;18076;52.154;10.570;2024-01-15T04:38:43;2.10;99.90
21312;DHT22;18076;52.154;10.570;2024-01-15T04:41:12;2.10;99.90
21312;DHT22;18076;52.154;10.570;2024-01-15T04:43:37;2.10;99.90
21312;DHT22;18076;52.154;10.570;2024-01-15T04:46:05;2.10;99.90
21312;DHT22;18076;52.154;10.570;2024-01-15T04:48:30;2.10;99.90
21312;DHT22;18076;52.154;10.570;2024-01-15T04:50:56;2.10;99.90
21312;DHT22;18076;52.154;10.570;2024-01-15T04:53:21;2.20;99.90
21312;DHT22;18076;52.154;10.570;2024-01-15T04:55:47;2.20;99.90
21312;DHT22;18076;52.154;10.570;2024-01-15T04:58:12;2.20;99.90
21312;DHT22;18076;52.154;10.570;2024-01-15T05:00:38;2.30;99.90
21312;DHT22;18076;52.154;10.570;2024-01-15T05:03:04;2.30;99.90
21312;DHT22;18076;52.154;10.570;2024-01-15T05:05:30;2.30;99.90
21312;DHT22;18076;52.154;10.570;2024-01-15T05:07:55;2.30;99.90
21312;DHT22;18076;52.154;10.570;2024-01-15T05:10:21;2.30;99.90
21312;DHT22;18076;52.154;10.570;2024-01-15T05:12:46;2.30;99.90
21312;DHT22;18076;52.154;10.570;2024-01-15T05:15:12;2.30;99.90
21312;DHT22;18076;52.154;10.570;2024-01-15T05:17:37;2.30;99.90
21312;DHT22;18076;52.154;10.570;2024-01-15T05:20:03;2.30;99.90
21312;DHT22;18076;52.154;10.570;2024-01-15T05:22:29;2.30;99.90
21312;DHT22;18076;52.154;10.570;2024-01-15T05:24:55;2.30;99.90
21312;DHT22;18076;52.154;10.570;2024-01-15T05:27:20;2.20;99.90
21312;DHT22;18076;52.154;10.570;2024-01-15T05:29:46;2.20;99.90
21312;DHT22;18076;52.154;10.570;2024-01-15T05:32:11;2.10;99.90
21312;DHT22;18076;52.154;10.570;2024-01-15T05:34:37;2.10;99.90
21312;DHT22;18076;52.154;10.570;2024-01-15T05:37:02;2.00;99.90
21312;DHT22;18076;52.154;10.570;2024-01-15T05:39:28;2.00;99.90
21312;DHT22;18076;52.154;10.570;2024-01-15T05:41:53;1.90;99.90
21312;DHT22;18076;52.154;10.570;2024-01-15T05:44:19;1.90;99.90
21312;DHT22;18076;52.154;10.570;2024-01-15T05:46:44;2.00;99.90
21312;DHT22;18076;52.154;10.570;2024-01-15T05:49:10;2.00;99.90
21312;DHT22;18076;52.154;10.570;2024-01-15T05:51:35;2.00;99.90
21312;DHT22;18076;52.154;10.570;2024-01-15T05:54:01;2.00;99.90
21312;DHT22;18076;52.154;10.570;2024-01-15T05:56:27;2.00;99.90
21312;DHT22;18076;52.154;10.570;2024-01-15T05:58:52;2.00;99.90
21312;DHT22;18076;52.154;10.570;2024-01-15T06:01:18;2.00;99.90
21312;DHT22;18076;52.154;10.570;2024-01-15T06:03:43;1.90;99.90
21312;DHT22;18076;52.154;10.570;2024-01-15T06:06:09;1.80;99.90
21312;DHT22;18076;52.154;10.570;2024-01-15T06:08:34;1.80;99.90
21312;DHT22;18076;52.154;10.570;2024-01-15T06:11:00;1.70;99.90
21312;DHT22;18076;52.154;10.570;2024-01-15T06:13:25;1.70;99.90
21312;DHT22;18076;52.154;10.570;2024-01-15T06:15:51;1.70;99.90
21312;DHT22;18076;52.154;10.570;2024-01-15T06:18:16;1.70;99.90
21312;DHT22;18076;52.154;10.570;2024-01-15T06:20:42;1.80;99.90
21312;DHT22;18076;52.154;10.570;2024-01-15T06:23:08;1.80;99.90
21312;DHT22;18076;52.154;10.570;2024-01-15T06:25:33;1.80;99.90
21312;DHT22;18076;52.154;10.570;2024-01-15T06:27:59;1.90;99.90
21312;DHT22;18076;52.154;10.570;2024-01-15T06:30:24;1.80;99.90
21312;DHT22;18076;52.154;10.570;2024-01-15T06:32:50;1.80;99.90
21312;DHT22;18076;52.154;10.570;2024-01-15T06:35:16;1.80;99.90
21312;DHT22;18076;52.154;10.570;2024-01-15T06:37:41;1.80;99.90
21312;DHT22;18076;52.154;10.570;2024-01-15T06:40:07;1.80;99.90
21312;DHT22;18076;52.154;10.570;2024-01-15T06:42:33;1.80;99.90
21312;DHT22;18076;52.154;10.570;2024-01-15T06:44:58;1.80;99.90
21312;DHT22;18076;52.154;10.570;2024-01-15T06:47:24;1.80;99.90
21312;DHT22;18076;52.154;10.570;2024-01-15T06:49:49;1.80;99.90
21312;DHT22;18076;52.154;10.570;2024-01-15T06:52:17;1.90;99.90
21312;DHT22;18076;52.154;10.570;2024-01-15T06:54:42;1.90;99.90
21312;DHT22;18076;52.154;10.570;2024-01-15T06:57:08;1.90;99.90
21312;DHT22;18076;52.154;10.570;2024-01-15T06:59:34;1.90;99.90
21312;DHT22;18076;52.154;10.570;2024-01-15T07:02:00;1.90;99.90
21312;DHT22;18076;52.154;10.570;2024-01-15T07:04:26;1.90;99.90
21312;DHT22;18076;52.154;10.570;2024-01-15T07:06:51;1.80;99.90
21312;DHT22;18076;52.154;10.570;2024-01-15T07:09:17;1.80;99.90
21312;DHT22;18076;52.154;10.570;2024-01-15T07:11:46;1.80;99.90
21312;DHT22;18076;52.154;10.570;2024-01-15T07:14:12;1.80;99.90
21312;DHT22;18076;52.154;10.570;2024-01-15T07:16:37;1.80;99.90
21312;DHT22;18076;52.154;10.570;2024-01-15T07:19:03;1.80;99.90
21312;DHT22;18076;52.154;10.570;2024-01-15T07:21:28;1.80;99.90
21312;DHT22;18076;52.154;10.570;2024-01-15T07:23:55;1.70;99.90
21312;DHT22;18076;52.154;10.570;2024-01-15T07:26:20;1.70;99.90
21312;DHT22;18076;52.154;10.570;2024-01-15T07:28:46;1.70;99.90
21312;DHT22;18076;52.154;10.570;2024-01-15T07:31:12;1.70;99.90
21312;DHT22;18076;52.154;10.570;2024-01-15T07:33:37;1.80;99.90
21312;DHT22;18076;52.154;10.570;2024-01-15T07:36:03;1.70;99.90
21312;DHT22;18076;52.154;10.570;2024-01-15T07:38:29;1.70;99.90
21312;DHT22;18076;52.154;10.570;2024-01-15T07:40:54;1.70;99.90
21312;DHT22;18076;52.154;10.570;2024-01-15T07:43:20;1.70;99.90
21312;DHT22;18076;52.154;10.570;2024-01-15T07:45:46;1.80;99.90
21312;DHT22;18076;52.154;10.570;2024-01-15T07:48:11;1.80;99.90
21312;DHT22;18076;52.154;10.570;2024-01-15T07:50:37;1.80;99.90
21312;DHT22;18076;52.154;10.570;2024-01-15T07:53:02;1.90;99.90
21312;DHT22;18076;52.154;10.570;2024-01-15T07:55:29;1.90;99.90
21312;DHT22;18076;52.154;10.570;2024-01-15T07:57:54;1.90;99.90
21312;DHT22;18076;52.154;10.570;2024-01-15T08:00:24;2.00;99.90
21312;DHT22;18076;52.154;10.570;2024-01-15T08:02:49;2.00;99.90
21312;DHT22;18076;52.154;10.570;2024-01-15T08:05:16;2.00;99.90
21312;DHT22;18076;52.154;10.570;2024-01-15T08:07:41;2.00;99.90
21312;DHT22;18076;52.154;10.570;2024-01-15T08:10:07;2.10;99.90
21312;DHT22;18076;52.154;10.570;2024-01-15T08:12:32;2.00;99.90
21312;DHT22;18076;52.154;10.570;2024-01-15T08:14:58;2.00;99.90
21312;DHT22;18076;52.154;10.570;2024-01-15T08:17:23;1.90;99.90
21312;DHT22;18076;52.154;10.570;2024-01-15T08:19:54;1.80;99.90
21312;DHT22;18076;52.154;10.570;2024-01-15T08:22:19;1.70;99.90
21312;DHT22;18076;52.154;10.570;2024-01-15T08:24:45;1.60;99.90
21312;DHT22;18076;52.154;10.570;2024-01-15T08:27:12;1.60;99.90
21312;DHT22;18076;52.154;10.570;2024-01-15T08:29:57;1.60;99.90
21312;DHT22;18076;52.154;10.570;2024-01-15T08:32:26;1.60;99.90
21312;DHT22;18076;52.154;10.570;2024-01-15T08:34:52;1.60;99.90
21312;DHT22;18076;52.154;10.570;2024-01-15T08:37:26;1.60;99.90
21312;DHT22;18076;52.154;10.570;2024-01-15T08:39:53;1.70;99.90
21312;DHT22;18076;52.154;10.570;2024-01-15T08:42:19;1.70;99.90
21312;DHT22;18076;52.154;10.570;2024-01-15T08:44:47;1.70;99.90
21312;DHT22;18076;52.154;10.570;2024-01-15T08:47:13;1.70;99.90
21312;DHT22;18076;52.154;10.570;2024-01-15T08:49:42;1.70;99.90
21312;DHT22;18076;52.154;10.570;2024-01-15T08:52:13;1.70;99.90
21312;DHT22;18076;52.154;10.570;2024-01-15T08:54:39;1.70;99.90
21312;DHT22;18076;52.154;10.570;2024-01-15T08:57:05;1.80;99.90
21312;DHT22;18076;52.154;10.570;2024-01-15T08:59:33;1.80;99.90
21312;DHT22;18076;52.154;10.570;2024-01-15T09:02:01;1.80;99.90
21312;DHT22;18076;52.154;10.570;2024-01-15T09:04:28;1.80;99.90
21312;DHT22;18076;52.154;10.570;2024-01-15T09:06:54;1.80;99.90
21312;DHT22;18076;52.154;10.570;2024-01-15T09:09:21;1.80;99.90
21312;DHT22;18076;52.154;10.570;2024-01-15T09:11:50;1.80;99.90
21312;DHT22;18076;52.154;10.570;2024-01-15T09:14:16;1.80;99.90
21312;DHT22;18076;52.154;10.570;2024-01-15T09:16:53;1.80;99.90
21312;DHT22;18076;52.154;10.570;2024-01-15T09:19:24;1.70;99.90
21312;DHT22;18076;52.154;10.570;2024-01-15T09:24:55;1.60;99.90
21312;DHT22;18076;52.154;10.570;2024-01-15T09:27:25;1.60;99.90
21312;DHT22;18076;52.154;10.570;2024-01-15T09:29:53;1.60;99.90
21312;DHT22;18076;52.154;10.570;2024-01-15T09:32:18;1.60;99.90
21312;DHT22;18076;52.154;10.570;2024-01-15T09:34:49;1.60;99.90
21312;DHT22;18076;52.154;10.570;2024-01-15T09:37:24;1.70;99.90
21312;DHT22;18076;52.154;10.570;2024-01-15T09:39:53;1.90;99.90
21312;DHT22;18076;52.154;10.570;2024-01-15T09:42:32;2.10;99.90
21312;DHT22;18076;52.154;10.570;2024-01-15T09:45:08;2.30;99.90
21312;DHT22;18076;52.154;10.570;2024-01-15T09:47:53;2.70;99.90
21312;DHT22;18076;52.154;10.570;2024-01-15T09:50:20;3.20;99.90
21312;DHT22;18076;52.154;10.570;2024-01-15T09:52:51;3.10;99.90
21312;DHT22;18076;52.154;10.570;2024-01-15T09:55:17;3.00;99.90
21312;DHT22;18076;52.154;10.570;2024-01-15T09:57:44;3.00;99.90
21312;DHT22;18076;52.154;10.570;2024-01-15T10:00:12;3.10;99.90
21312;DHT22;18076;52.154;10.570;2024-01-15T10:02:40;3.20;99.90
21312;DHT22;18076;52.154;10.570;2024-01-15T10:05:06;3.20;99.90
21312;DHT22;18076;52.154;10.570;2024-01-15T10:07:46;3.10;99.90
21312;DHT22;18076;52.154;10.570;2024-01-15T10:10:15;3.10;99.90
21312;DHT22;18076;52.154;10.570;2024-01-15T10:12:49;3.10;99.90
21312;DHT22;18076;52.154;10.570;2024-01-15T10:15:22;3.30;99.90
21312;DHT22;18076;52.154;10.570;2024-01-15T10:17:50;3.40;99.90
21312;DHT22;18076;52.154;10.570;2024-01-15T10:20:16;3.30;99.90
21312;DHT22;18076;52.154;10.570;2024-01-15T10:22:42;3.20;99.90
21312;DHT22;18076;52.154;10.570;2024-01-15T10:25:14;3.10;99.90
21312;DHT22;18076;52.154;10.570;2024-01-15T10:27:47;3.00;99.90
21312;DHT22;18076;52.154;10.570;2024-01-15T10:30:29;3.00;99.90
21312;DHT22;18076;52.154;10.570;2024-01-15T10:32:58;2.90;99.90
21312;DHT22;18076;52.154;10.570;2024-01-15T10:35:32;2.90;99.90
21312;DHT22;18076;52.154;10.570;2024-01-15T10:37:59;2.90;99.90
21312;DHT22;18076;52.154;10.570;2024-01-15T10:40:29;2.90;99.90
21312;DHT22;18076;52.154;10.570;2024-01-15T10:42:58;3.00;99.90
21312;DHT22;18076;52.154;10.570;2024-01-15T10:45:26;2.90;99.90
21312;DHT22;18076;52.154;10.570;2024-01-15T10:47:58;2.80;99.90
21312;DHT22;18076;52.154;10.570;2024-01-15T10:50:27;2.80;99.90
21312;DHT22;18076;52.154;10.570;2024-01-15T10:53:00;2.80;99.90
21312;DHT22;18076;52.154;10.570;2024-01-15T10:55:27;2.80;99.90
21312;DHT22;18076;52.154;10.570;2024-01-15T10:57:53;2.80;99.90
21312;DHT22;18076;52.154;10.570;2024-01-15T11:00:21;2.70;99.90
21312;DHT22;18076;52.154;10.570;2024-01-15T11:02:55;2.70;99.90
21312;DHT22;18076;52.154;10.570;2024-01-15T11:23:57;2.50;99.90
21312;DHT22;18076;52.154;10.570;2024-01-15T11:26:27;2.50;99.90
21312;DHT22;18076;52.154;10.570;2024-01-15T11:28:56;2.60;99.90
21312;DHT22;18076;52.154;10.570;2024-01-15T11:31:28;2.70;99.90
21312;DHT22;18076;52.154;10.570;2024-01-15T11:33:53;2.70;99.90
21312;DHT22;18076;52.154;10.570;2024-01-15T11:37:00;2.70;99.90
21312;DHT22;18076;52.154;10.570;2024-01-15T11:41:50;2.80;99.90
21312;DHT22;18076;52.154;10.570;2024-01-15T11:44:18;2.90;99.90
21312;DHT22;18076;52.154;10.570;2024-01-15T11:46:49;3.10;99.90
21312;DHT22;18076;52.154;10.570;2024-01-15T11:52:33;3.30;99.90
21312;DHT22;18076;52.154;10.570;2024-01-15T11:57:50;3.10;99.90
21312;DHT22;18076;52.154;10.570;2024-01-15T12:00:22;3.00;99.90
21312;DHT22;18076;52.154;10.570;2024-01-15T12:02:48;3.00;99.90
21312;DHT22;18076;52.154;10.570;2024-01-15T12:05:16;2.90;99.90
21312;DHT22;18076;52.154;10.570;2024-01-15T12:07:43;3.00;99.90
21312;DHT22;18076;52.154;10.570;2024-01-15T12:10:15;3.10;99.90
21312;DHT22;18076;52.154;10.570;2024-01-15T12:12:59;3.20;99.90
21312;DHT22;18076;52.154;10.570;2024-01-15T12:15:26;3.30;99.90
21312;DHT22;18076;52.154;10.570;2024-01-15T12:17:52;3.30;99.90
21312;DHT22;18076;52.154;10.570;2024-01-15T12:20:20;3.40;99.90
21312;DHT22;18076;52.154;10.570;2024-01-15T12:22:49;3.40;99.90
21312;DHT22;18076;52.154;10.570;2024-01-15T12:25:15;3.40;99.90
21312;DHT22;18076;52.154;10.570;2024-01-15T12:27:48;3.40;99.90
21312;DHT22;18076;52.154;10.570;2024-01-15T12:30:17;3.30;99.90
21312;DHT22;18076;52.154;10.570;2024-01-15T12:32:51;3.30;99.90
21312;DHT22;18076;52.154;10.570;2024-01-15T12:35:18;3.30;99.90
21312;DHT22;18076;52.154;10.570;2024-01-15T12:40:47;3.10;99.90
21312;DHT22;18076;52.154;10.570;2024-01-15T12:43:15;3.00;99.90
21312;DHT22;18076;52.154;10.570;2024-01-15T12:45:42;3.10;99.90
21312;DHT22;18076;52.154;10.570;2024-01-15T12:48:08;3.00;99.90
21312;DHT22;18076;52.154;10.570;2024-01-15T12:50:51;3.00;99.90
21312;DHT22;18076;52.154;10.570;2024-01-15T12:53:20;2.90;99.90
21312;DHT22;18076;52.154;10.570;2024-01-15T12:55:53;2.80;99.90
21312;DHT22;18076;52.154;10.570;2024-01-15T12:58:39;2.80;99.90
21312;DHT22;18076;52.154;10.570;2024-01-15T13:01:09;2.80;99.90
21312;DHT22;18076;52.154;10.570;2024-01-15T13:03:34;2.80;99.90
21312;DHT22;18076;52.154;10.570;2024-01-15T13:06:01;2.80;99.90
21312;DHT22;18076;52.154;10.570;2024-01-15T13:08:29;2.70;99.90
21312;DHT22;18076;52.154;10.570;2024-01-15T13:10:58;2.70;99.90
21312;DHT22;18076;52.154;10.570;2024-01-15T13:13:24;2.70;99.90
21312;DHT22;18076;52.154;10.570;2024-01-15T13:15:52;2.70;99.90
21312;DHT22;18076;52.154;10.570;2024-01-15T13:18:18;2.70;99.90
21312;DHT22;18076;52.154;10.570;2024-01-15T13:20:45;2.70;99.90
21312;DHT22;18076;52.154;10.570;2024-01-15T13:23:14;2.60;99.90
21312;DHT22;18076;52.154;10.570;2024-01-15T13:25:41;2.60;99.90
21312;DHT22;18076;52.154;10.570;2024-01-15T13:28:07;2.70;99.90
21312;DHT22;18076;52.154;10.570;2024-01-15T13:30:36;2.70;99.90
21312;DHT22;18076;52.154;10.570;2024-01-15T13:33:09;2.70;99.90
21312;DHT22;18076;52.154;10.570;2024-01-15T13:35:42;2.70;99.90
21312;DHT22;18076;52.154;10.570;2024-01-15T13:38:12;2.70;99.90
21312;DHT22;18076;52.154;10.570;2024-01-15T13:40:41;2.70;99.90
21312;DHT22;18076;52.154;10.570;2024-01-15T13:43:15;2.70;99.90
21312;DHT22;18076;52.154;10.570;2024-01-15T13:45:43;2.70;99.90
21312;DHT22;18076;52.154;10.570;2024-01-15T13:48:20;2.70;99.90
21312;DHT22;18076;52.154;10.570;2024-01-15T13:53:30;2.70;99.90
21312;DHT22;18076;52.154;10.570;2024-01-15T13:56:00;2.70;99.90
21312;DHT22;18076;52.154;10.570;2024-01-15T13:58:37;2.70;99.90
21312;DHT22;18076;52.154;10.570;2024-01-15T14:01:07;2.70;99.90
21312;DHT22;18076;52.154;10.570;2024-01-15T14:03:40;2.70;99.90
21312;DHT22;18076;52.154;10.570;2024-01-15T14:06:06;2.70;99.90
21312;DHT22;18076;52.154;10.570;2024-01-15T14:08:40;2.70;99.90
21312;DHT22;18076;52.154;10.570;2024-01-15T14:11:08;2.60;99.90
21312;DHT22;18076;52.154;10.570;2024-01-15T14:13:47;2.60;99.90
21312;DHT22;18076;52.154;10.570;2024-01-15T14:16:33;2.50;99.90
21312;DHT22;18076;52.154;10.570;2024-01-15T14:19:11;2.50;99.90
21312;DHT22;18076;52.154;10.570;2024-01-15T14:21:40;2.40;99.90
21312;DHT22;18076;52.154;10.570;2024-01-15T14:24:10;2.40;99.90
21312;DHT22;18076;52.154;10.570;2024-01-15T14:26:39;2.40;99.90
21312;DHT22;18076;52.154;10.570;2024-01-15T14:29:15;2.40;99.90
21312;DHT22;18076;52.154;10.570;2024-01-15T14:31:42;2.30;99.90
21312;DHT22;18076;52.154;10.570;2024-01-15T14:34:08;2.30;99.90
21312;DHT22;18076;52.154;10.570;2024-01-15T14:39:29;2.30;99.90
21312;DHT22;18076;52.154;10.570;2024-01-15T14:42:05;2.20;99.90
21312;DHT22;18076;52.154;10.570;2024-01-15T14:44:34;2.10;99.90
21312;DHT22;18076;52.154;10.570;2024-01-15T14:47:06;2.10;99.90
21312;DHT22;18076;52.154;10.570;2024-01-15T14:49:33;2.10;99.90
21312;DHT22;18076;52.154;10.570;2024-01-15T14:52:00;2.10;99.90
21312;DHT22;18076;52.154;10.570;2024-01-15T14:54:27;2.10;99.90
21312;DHT22;18076;52.154;10.570;2024-01-15T14:56:59;2.20;99.90
21312;DHT22;18076;52.154;10.570;2024-01-15T14:59:38;2.20;99.90
21312;DHT22;18076;52.154;10.570;2024-01-15T15:02:07;2.20;99.90
21312;DHT22;18076;52.154;10.570;2024-01-15T15:04:37;2.20;99.90
21312;DHT22;18076;52.154;10.570;2024-01-15T15:07:02;2.20;99.90
21312;DHT22;18076;52.154;10.570;2024-01-15T15:09:28;2.10;99.90
21312;DHT22;18076;52.154;10.570;2024-01-15T15:12:03;2.00;99.90
21312;DHT22;18076;52.154;10.570;2024-01-15T15:14:37;1.90;99.90
21312;DHT22;18076;52.154;10.570;2024-01-15T15:17:07;1.80;99.90
21312;DHT22;18076;52.154;10.570;2024-01-15T15:19:36;1.70;99.90
21312;DHT22;18076;52.154;10.570;2024-01-15T15:22:05;1.70;99.90
21312;DHT22;18076;52.154;10.570;2024-01-15T15:24:32;1.70;99.90
21312;DHT22;18076;52.154;10.570;2024-01-15T15:27:00;1.60;99.90
21312;DHT22;18076;52.154;10.570;2024-01-15T15:29:26;1.70;99.90
21312;DHT22;18076;52.154;10.570;2024-01-15T15:31:55;1.70;99.90
21312;DHT22;18076;52.154;10.570;2024-01-15T15:34:25;1.70;99.90
21312;DHT22;18076;52.154;10.570;2024-01-15T15:36:56;1.70;99.90
21312;DHT22;18076;52.154;10.570;2024-01-15T15:39:25;1.70;99.90
21312;DHT22;18076;52.154;10.570;2024-01-15T15:41:51;1.80;99.90
21312;DHT22;18076;52.154;10.570;2024-01-15T15:44:33;1.80;99.90
21312;DHT22;18076;52.154;10.570;2024-01-15T15:47:02;1.80;99.90
21312;DHT22;18076;52.154;10.570;2024-01-15T15:49:30;1.70;99.90
21312;DHT22;18076;52.154;10.570;2024-01-15T15:51:57;1.60;99.90
21312;DHT22;18076;52.154;10.570;2024-01-15T15:54:24;1.60;99.90
21312;DHT22;18076;52.154;10.570;2024-01-15T15:56:49;1.50;99.90
21312;DHT22;18076;52.154;10.570;2024-01-15T15:59:18;1.50;99.90
21312;DHT22;18076;52.154;10.570;2024-01-15T16:01:53;1.50;99.90
21312;DHT22;18076;52.154;10.570;2024-01-15T16:04:19;1.40;99.90
21312;DHT22;18076;52.154;10.570;2024-01-15T16:06:45;1.40;99.90
21312;DHT22;18076;52.154;10.570;2024-01-15T16:09:13;1.50;99.90
21312;DHT22;18076;52.154;10.570;2024-01-15T16:11:40;1.50;99.90
21312;DHT22;18076;52.154;10.570;2024-01-15T16:14:06;1.50;99.90